Time;durP1;ratioP1;P1;durP2;ratioP2;P2;SDS_P1;SDS_P2;PMS_P1;PMS_P2;Temp;Humidity;BMP_temperature;BMP_pressure;BME280_temperature;BME280_humidity;BME280_pressure;Samples;Min_cycle;Max_cycle;Signal;HPM_P1;HPM_P2
2021/10/01 00:17:24;;;;;;;;;;;;;;;;;;4461473;28;20119;-62
2021/10/01 00:19:52;;;;;;;17.55;8.50;;;;;;;;;;4138353;34;20399;-59
2021/10/01 00:22:18;;;;;;;23.12;9.73;;;;;;;;;;4138247;34;20103;-62
2021/10/01 00:24:44;;;;;;;28.45;11.50;;;;;;;;;;4136565;34;20116;-62
2021/10/01 00:27:12;;;;;;;25.20;10.15;;;;;;;;;;4137854;34;20483;-59
2021/10/01 00:29:38;;;;;;;26.87;11.82;;;;;;;;;;4138264;34;20119;-62
2021/10/01 00:32:05;;;;;;;26.55;12.10;;;;;;;;;;4137754;34;20547;-62
2021/10/01 00:34:31;;;;;;;29.20;11.95;;;;;;;;;;4136562;34;20104;-64
2021/10/01 00:36:56;;;;;;;25.92;10.75;;;;;;;;;;4137807;34;20118;-64
2021/10/01 00:39:22;;;;;;;21.05;10.85;;;;;;;;;;4136591;34;20130;-66
2021/10/01 00:41:48;;;;;;;39.88;13.62;;;;;;;;;;4125143;34;20207;-66
2021/10/01 00:44:14;;;;;;;38.80;13.35;;;;;;;;;;4136542;34;20131;-63
2021/10/01 00:46:40;;;;;;;32.63;13.07;;;;;;;;;;4136261;34;20107;-64
2021/10/01 00:49:06;;;;;;;30.52;12.27;;;;;;;;;;4136480;34;20099;-63
2021/10/01 00:51:33;;;;;;;22.33;10.23;;;;;;;;;;4137754;34;20099;-62
2021/10/01 00:53:59;;;;;;;19.05;8.68;;;;;;;;;;4137853;34;20112;-62
2021/10/01 00:56:25;;;;;;;15.40;7.57;;;;;;;;;;4137748;34;20486;-62
2021/10/01 00:58:51;;;;;;;10.80;6.30;;;;;;;;;;4137848;34;20443;-63
2021/10/01 01:01:17;;;;;;;15.23;6.70;;;;;;;;;;4136191;34;20131;-63
2021/10/01 01:03:49;;;;;;;14.07;6.65;;;;;;;;;;4137890;34;20160;-62
2021/10/01 01:06:42;;;;;;;13.55;6.57;;;;;;;;;;4125257;34;20471;-62
2021/10/01 01:09:41;;;;;;;10.20;5.87;;;;;;;;;;4137626;34;20172;-62
2021/10/01 01:12:16;;;;;;;11.27;4.60;;;;;;;;;;4137503;34;20119;-62
2021/10/01 01:14:44;;;;;;;9.50;4.53;;;;;;;;;;4136133;34;20115;-62
2021/10/01 01:17:13;;;;;;;11.27;4.82;;;;;;;;;;4135841;34;20120;-62
2021/10/01 01:20:02;;;;;;;8.60;4.70;;;;;;;;;;4125330;34;20121;-62
2021/10/01 01:22:59;;;;;;;8.43;4.20;;;;;;;;;;4137416;34;20444;-62
2021/10/01 01:25:43;;;;;;;9.63;4.72;;;;;;;;;;4127198;34;20212;-62
2021/10/01 01:28:35;;;;;;;8.70;5.00;;;;;;;;;;4137470;34;20113;-62
2021/10/01 01:31:27;;;;;;;8.77;4.37;;;;;;;;;;4124906;34;20114;-62
2021/10/01 01:33:53;;;;;;;12.82;5.20;;;;;;;;;;4132858;34;20092;-63
2021/10/01 01:36:19;;;;;;;8.27;4.45;;;;;;;;;;4135877;34;20123;-62
2021/10/01 01:38:48;;;;;;;9.48;4.70;;;;;;;;;;4136028;34;20608;-62
2021/10/01 01:41:14;;;;;;;11.73;4.37;;;;;;;;;;4124849;34;20104;-62
2021/10/01 01:43:40;;;;;;;10.55;4.30;;;;;;;;;;4135969;34;20240;-66
2021/10/01 01:46:06;;;;;;;11.48;5.37;;;;;;;;;;4136113;34;20122;-66
2021/10/01 01:48:32;;;;;;;9.02;5.07;;;;;;;;;;4124843;34;20143;-63
2021/10/01 01:50:58;;;;;;;10.88;5.10;;;;;;;;;;4137533;34;20568;-63
2021/10/01 01:53:24;;;;;;;8.90;4.80;;;;;;;;;;4124372;34;20191;-67
2021/10/01 01:55:50;;;;;;;12.98;5.10;;;;;;;;;;4124781;34;20147;-62
2021/10/01 01:58:16;;;;;;;8.15;4.32;;;;;;;;;;4136230;34;20127;-63
2021/10/01 02:00:43;;;;;;;8.80;4.82;;;;;;;;;;4124744;34;20208;-63
2021/10/01 02:03:08;;;;;;;9.40;3.90;;;;;;;;;;4137600;34;20212;-67
2021/10/01 02:05:34;;;;;;;9.05;5.07;;;;;;;;;;4124827;34;20092;-59
2021/10/01 02:08:00;;;;;;;8.00;5.37;;;;;;;;;;4135869;34;20134;-60
2021/10/01 02:10:26;;;;;;;17.02;6.93;;;;;;;;;;4124647;34;20227;-60
2021/10/01 02:12:55;;;;;;;10.48;5.28;;;;;;;;;;4135789;34;20111;-59
2021/10/01 02:15:21;;;;;;;10.38;5.00;;;;;;;;;;4124556;34;20464;-59
2021/10/01 02:17:47;;;;;;;6.97;4.45;;;;;;;;;;4135549;34;20107;-60
2021/10/01 02:20:13;;;;;;;7.35;4.55;;;;;;;;;;4137101;34;20543;-66
2021/10/01 02:22:39;;;;;;;7.32;4.12;;;;;;;;;;4135866;34;20119;-62
2021/10/01 02:25:05;;;;;;;10.25;4.37;;;;;;;;;;4124583;34;20103;-62
2021/10/01 02:27:34;;;;;;;7.75;4.60;;;;;;;;;;4136840;34;20139;-66
2021/10/01 02:30:18;;;;;;;5.37;3.85;;;;;;;;;;4124818;34;20088;-64
2021/10/01 02:32:48;;;;;;;9.45;4.18;;;;;;;;;;4135599;34;20631;-64
2021/10/01 02:35:14;;;;;;;5.35;4.30;;;;;;;;;;4124719;34;20123;-66
2021/10/01 02:37:40;;;;;;;4.78;4.28;;;;;;;;;;4135549;34;20217;-62
2021/10/01 02:40:07;;;;;;;7.78;4.28;;;;;;;;;;4135504;34;20155;-62
2021/10/01 02:42:33;;;;;;;7.45;4.30;;;;;;;;;;4135518;34;20221;-62
2021/10/01 02:44:59;;;;;;;5.25;4.30;;;;;;;;;;4136862;34;20112;-62
2021/10/01 02:47:27;;;;;;;6.28;4.85;;;;;;;;;;4136571;34;20143;-62
2021/10/01 02:49:52;;;;;;;5.50;3.97;;;;;;;;;;4135461;34;20235;-62
2021/10/01 02:52:37;;;;;;;9.32;4.60;;;;;;;;;;4135444;34;20146;-62
2021/10/01 02:55:36;;;;;;;7.53;4.55;;;;;;;;;;4136737;34;20194;-62
2021/10/01 02:58:10;;;;;;;6.97;4.47;;;;;;;;;;4120114;34;20124;-66
2021/10/01 03:00:36;;;;;;;11.07;4.70;;;;;;;;;;4123870;34;20192;-67
2021/10/01 03:03:11;;;;;;;6.07;4.82;;;;;;;;;;4124293;34;20119;-64
2021/10/01 03:05:37;;;;;;;6.18;4.60;;;;;;;;;;4124697;34;20084;-67
2021/10/01 03:08:03;;;;;;;8.27;4.75;;;;;;;;;;4124425;34;20463;-66
2021/10/01 03:10:29;;;;;;;11.95;5.30;;;;;;;;;;4135235;34;20099;-66
2021/10/01 03:12:55;;;;;;;16.25;6.20;;;;;;;;;;4124106;34;20094;-67
2021/10/01 03:15:21;;;;;;;14.02;5.72;;;;;;;;;;4134949;34;20111;-66
2021/10/01 03:17:47;;;;;;;14.48;7.50;;;;;;;;;;4124247;34;20112;-66
2021/10/01 03:20:14;;;;;;;14.77;7.12;;;;;;;;;;4135059;34;20216;-66
2021/10/01 03:22:40;;;;;;;15.30;7.47;;;;;;;;;;4124153;34;20139;-68
2021/10/01 03:25:07;;;;;;;16.08;8.13;;;;;;;;;;4112916;34;20126;-68
2021/10/01 03:27:33;;;;;;;17.65;8.88;;;;;;;;;;4135074;34;20232;-69
2021/10/01 03:29:59;;;;;;;19.50;8.40;;;;;;;;;;4113077;34;20549;-63
2021/10/01 03:32:26;;;;;;;18.25;8.48;;;;;;;;;;4134978;34;20625;-69
2021/10/01 03:34:55;;;;;;;19.15;8.63;;;;;;;;;;4124147;34;20110;-69
2021/10/01 03:37:21;;;;;;;19.37;8.35;;;;;;;;;;4124267;34;20681;-61
2021/10/01 03:40:01;;;;;;;17.75;8.40;;;;;;;;;;4135740;34;20143;-61
2021/10/01 03:42:27;;;;;;;15.73;7.60;;;;;;;;;;4135316;34;20143;-69
2021/10/01 03:44:53;;;;;;;16.87;7.78;;;;;;;;;;4136466;34;20178;-64
2021/10/01 03:47:19;;;;;;;18.35;9.05;;;;;;;;;;4136436;34;20131;-67
2021/10/01 03:49:45;;;;;;;24.42;8.80;;;;;;;;;;4134935;34;20123;-66
2021/10/01 03:52:12;;;;;;;18.65;8.60;;;;;;;;;;4136095;34;20131;-66
2021/10/01 03:54:40;;;;;;;19.70;8.20;;;;;;;;;;4134871;34;20571;-68
2021/10/01 03:57:06;;;;;;;15.93;7.20;;;;;;;;;;4136063;34;20095;-74
2021/10/01 03:59:32;;;;;;;22.87;7.53;;;;;;;;;;4134909;34;20191;-59
2021/10/01 04:01:58;;;;;;;15.63;6.45;;;;;;;;;;4123593;34;20149;-73
2021/10/01 04:04:24;;;;;;;13.38;7.07;;;;;;;;;;4136145;34;20088;-73
2021/10/01 04:06:50;;;;;;;16.33;6.57;;;;;;;;;;4134468;34;20481;-73
2021/10/01 04:09:16;;;;;;;14.90;6.65;;;;;;;;;;4134584;34;20104;-73
2021/10/01 04:11:42;;;;;;;12.88;6.75;;;;;;;;;;4134604;34;20138;-73
2021/10/01 04:14:08;;;;;;;15.10;6.70;;;;;;;;;;4134661;34;20106;-73
2021/10/01 04:16:34;;;;;;;15.20;7.82;;;;;;;;;;4135730;34;20146;-68
2021/10/01 04:19:00;;;;;;;16.87;7.37;;;;;;;;;;4135786;34;20590;-69
2021/10/01 04:21:26;;;;;;;14.02;6.82;;;;;;;;;;4147075;34;20541;-68
2021/10/01 04:23:52;;;;;;;17.45;6.35;;;;;;;;;;4147843;34;20462;-68
2021/10/01 04:26:18;;;;;;;19.27;6.97;;;;;;;;;;4149182;34;20226;-68
2021/10/01 04:28:45;;;;;;;15.23;6.20;;;;;;;;;;4147839;34;20127;-69
2021/10/01 04:31:11;;;;;;;23.02;7.25;;;;;;;;;;4147849;34;20131;-69
2021/10/01 04:33:40;;;;;;;16.40;5.50;;;;;;;;;;4136690;34;20527;-69
2021/10/01 04:36:06;;;;;;;13.50;5.57;;;;;;;;;;4149011;34;20092;-69
2021/10/01 04:38:32;;;;;;;17.40;6.03;;;;;;;;;;4147990;34;20207;-70
2021/10/01 04:40:58;;;;;;;9.45;5.35;;;;;;;;;;4147703;34;20188;-69
2021/10/01 04:43:24;;;;;;;10.25;5.50;;;;;;;;;;4125608;34;20122;-69
2021/10/01 04:45:50;;;;;;;17.48;5.87;;;;;;;;;;4147722;34;20122;-69
2021/10/01 04:48:16;;;;;;;10.88;5.28;;;;;;;;;;4148957;34;20595;-70
2021/10/01 04:50:42;;;;;;;17.37;6.45;;;;;;;;;;4126995;34;20135;-69
2021/10/01 04:53:08;;;;;;;14.63;6.37;;;;;;;;;;4151275;34;20150;-70
2021/10/01 04:55:34;;;;;;;13.90;7.55;;;;;;;;;;4149835;34;20180;-69
2021/10/01 04:58:00;;;;;;;11.98;7.07;;;;;;;;;;4149568;34;20111;-69
2021/10/01 05:00:27;;;;;;;13.93;6.50;;;;;;;;;;4149719;34;20113;-67
2021/10/01 05:02:52;;;;;;;15.55;6.50;;;;;;;;;;4118559;34;20130;-67
2021/10/01 05:05:18;;;;;;;21.65;7.95;;;;;;;;;;4143056;34;20142;-67
2021/10/01 05:07:44;;;;;;;14.55;7.05;;;;;;;;;;4149847;34;20644;-68
2021/10/01 05:10:11;;;;;;;13.27;7.25;;;;;;;;;;4149431;34;20518;-67
2021/10/01 05:12:37;;;;;;;16.37;7.03;;;;;;;;;;4145160;34;20198;-67
2021/10/01 05:15:03;;;;;;;13.25;6.15;;;;;;;;;;4149873;34;20123;-67
2021/10/01 05:17:29;;;;;;;15.45;7.55;;;;;;;;;;4137561;34;20627;-67
2021/10/01 05:19:55;;;;;;;11.55;5.32;;;;;;;;;;4149397;34;20171;-68
2021/10/01 05:22:21;;;;;;;14.90;7.00;;;;;;;;;;4150501;34;20127;-67
2021/10/01 05:24:47;;;;;;;14.87;7.20;;;;;;;;;;4150530;34;20115;-68
2021/10/01 05:27:13;;;;;;;27.00;9.30;;;;;;;;;;4150283;34;20117;-68
2021/10/01 05:29:39;;;;;;;21.23;9.55;;;;;;;;;;4137931;34;20184;-68
2021/10/01 05:32:05;;;;;;;13.57;6.75;;;;;;;;;;4149000;34;20139;-67
2021/10/01 05:34:31;;;;;;;14.20;7.72;;;;;;;;;;4138307;34;20207;-66
2021/10/01 05:36:57;;;;;;;15.98;7.57;;;;;;;;;;4148903;34;20135;-67
2021/10/01 05:39:23;;;;;;;20.65;8.13;;;;;;;;;;4150211;34;20211;-74
2021/10/01 05:41:48;;;;;;;18.77;8.02;;;;;;;;;;4144091;34;20135;-72
2021/10/01 05:44:14;;;;;;;19.45;7.95;;;;;;;;;;4137732;34;20138;-72
2021/10/01 05:46:44;;;;;;;21.80;8.50;;;;;;;;;;4136776;34;20594;-72
2021/10/01 05:49:18;;;;;;;16.40;6.50;;;;;;;;;;4136941;34;20203;-72
2021/10/01 05:52:14;;;;;;;14.10;6.85;;;;;;;;;;4137678;34;20205;-72
2021/10/01 05:54:33;;;;;;;11.23;6.10;;;;;;;;;;4149938;34;20114;-60
2021/10/01 05:56:59;;;;;;;16.85;6.57;;;;;;;;;;4125507;34;20540;-61
2021/10/01 05:59:25;;;;;;;14.23;7.07;;;;;;;;;;4135568;34;20194;-60
2021/10/01 06:01:51;;;;;;;14.45;6.00;;;;;;;;;;4134681;34;20111;-60
2021/10/01 06:04:17;;;;;;;8.55;5.50;;;;;;;;;;4135138;34;20574;-61
2021/10/01 06:06:43;;;;;;;11.60;5.60;;;;;;;;;;4136770;34;20120;-61
2021/10/01 06:09:13;;;;;;;12.23;6.18;;;;;;;;;;4124554;34;20541;-65
2021/10/01 06:11:39;;;;;;;5.93;4.05;;;;;;;;;;4136559;34;20216;-65
2021/10/01 06:14:06;;;;;;;7.70;3.80;;;;;;;;;;4124137;34;20527;-65
2021/10/01 06:16:32;;;;;;;4.57;3.53;;;;;;;;;;4134978;34;20545;-65
2021/10/01 06:18:58;;;;;;;7.32;3.75;;;;;;;;;;4136987;34;20202;-65
2021/10/01 06:21:23;;;;;;;8.63;3.92;;;;;;;;;;4136595;34;20134;-65
2021/10/01 06:23:50;;;;;;;5.95;3.10;;;;;;;;;;4136624;34;20611;-66
2021/10/01 06:26:15;;;;;;;3.92;3.30;;;;;;;;;;4136701;34;20112;-66
2021/10/01 06:28:41;;;;;;;7.10;3.97;;;;;;;;;;4136380;34;20138;-65
2021/10/01 06:31:07;;;;;;;5.35;4.15;;;;;;;;;;4144553;34;20495;-65
2021/10/01 06:33:33;;;;;;;6.80;4.50;;;;;;;;;;4154351;34;20565;-66
2021/10/01 06:35:59;;;;;;;8.00;4.03;;;;;;;;;;4148516;34;20191;-68
2021/10/01 06:38:25;;;;;;;4.40;3.22;;;;;;;;;;4137834;34;20104;-67
2021/10/01 06:40:51;;;;;;;9.98;4.97;;;;;;;;;;4136403;34;20214;-68
2021/10/01 06:43:19;;;;;;;10.90;6.80;;;;;;;;;;4145141;34;20142;-68
2021/10/01 06:45:48;;;;;;;13.68;6.95;;;;;;;;;;4149811;34;20551;-68
2021/10/01 06:48:25;;;;;;;14.93;6.20;;;;;;;;;;4149880;34;20138;-67
2021/10/01 07:21:27;;;;;;;9.50;4.75;;;;;;;;;;4136429;34;20192;-66
2021/10/01 08:20:45;;;;;;;9.05;3.80;;;;;;;;;;4134442;34;20139;-65
2021/10/01 08:23:11;;;;;;;5.28;3.30;;;;;;;;;;4144041;34;20106;-64
2021/10/01 08:25:38;;;;;;;9.52;3.90;;;;;;;;;;4150641;34;20114;-64
2021/10/01 08:28:04;;;;;;;4.97;3.10;;;;;;;;;;4141178;34;20268;-65
2021/10/01 08:30:30;;;;;;;5.12;3.55;;;;;;;;;;4139222;34;20112;-65
2021/10/01 08:32:56;;;;;;;6.65;3.35;;;;;;;;;;4143094;34;20127;-65
2021/10/01 08:35:24;;;;;;;5.30;3.60;;;;;;;;;;4139150;34;20131;-66
2021/10/01 08:37:50;;;;;;;7.82;3.87;;;;;;;;;;4150354;34;20127;-65
2021/10/01 08:40:16;;;;;;;6.05;4.53;;;;;;;;;;4151163;34;20456;-68
2021/10/01 08:42:43;;;;;;;4.85;3.70;;;;;;;;;;4150855;34;20123;-67
2021/10/01 08:45:10;;;;;;;6.80;3.87;;;;;;;;;;4151212;34;20770;-67
2021/10/01 08:47:36;;;;;;;4.57;3.90;;;;;;;;;;4148905;34;20216;-67
2021/10/01 08:50:03;;;;;;;12.05;3.45;;;;;;;;;;4125447;34;20199;-68
2021/10/01 08:52:29;;;;;;;6.53;4.87;;;;;;;;;;4142155;34;20313;-69
2021/10/01 08:54:55;;;;;;;9.30;4.50;;;;;;;;;;4117504;34;20121;-67
2021/10/01 08:57:21;;;;;;;5.25;4.12;;;;;;;;;;4145849;34;20239;-65
2021/10/01 08:59:47;;;;;;;8.60;4.68;;;;;;;;;;4136734;34;20191;-66
2021/10/01 09:02:14;;;;;;;6.53;3.95;;;;;;;;;;4137346;34;20212;-65
2021/10/01 09:04:40;;;;;;;7.32;4.10;;;;;;;;;;4135985;34;20106;-66
2021/10/01 09:07:06;;;;;;;6.45;4.22;;;;;;;;;;4137181;34;20131;-66
2021/10/01 09:09:35;;;;;;;7.68;4.30;;;;;;;;;;4135903;34;20119;-66
2021/10/01 09:12:01;;;;;;;5.47;4.47;;;;;;;;;;4124737;34;20478;-66
2021/10/01 09:14:27;;;;;;;8.85;4.80;;;;;;;;;;4126524;34;20771;-67
2021/10/01 09:16:53;;;;;;;6.47;4.00;;;;;;;;;;4135565;34;20127;-67
2021/10/01 09:19:19;;;;;;;9.38;4.22;;;;;;;;;;4137279;34;20095;-68
2021/10/01 09:21:50;;;;;;;7.97;4.30;;;;;;;;;;4135688;34;20127;-66
2021/10/01 09:24:18;;;;;;;9.90;4.90;;;;;;;;;;4113850;34;20119;-65
2021/10/01 09:26:48;;;;;;;7.32;4.62;;;;;;;;;;4124684;34;20202;-66
2021/10/01 09:29:26;;;;;;;7.10;4.72;;;;;;;;;;4114063;34;20162;-64
2021/10/01 09:31:53;;;;;;;6.40;3.78;;;;;;;;;;4140617;34;20123;-64
2021/10/01 09:34:23;;;;;;;7.93;5.15;;;;;;;;;;4125106;34;20130;-64
2021/10/01 09:37:06;;;;;;;8.10;4.00;;;;;;;;;;4124952;34;20237;-63
2021/10/01 09:39:34;;;;;;;5.70;4.05;;;;;;;;;;4135797;34;20437;-63
2021/10/01 09:42:10;;;;;;;5.57;3.97;;;;;;;;;;4137235;34;20805;-72
2021/10/01 09:44:37;;;;;;;5.40;3.67;;;;;;;;;;4113437;34;20214;-66
2021/10/01 09:47:05;;;;;;;4.93;3.67;;;;;;;;;;4111673;34;20114;-66
2021/10/01 09:49:33;;;;;;;6.12;4.22;;;;;;;;;;4107416;34;20273;-66
2021/10/01 09:52:00;;;;;;;11.50;3.92;;;;;;;;;;4135658;34;20443;-66
2021/10/01 09:54:28;;;;;;;5.80;4.05;;;;;;;;;;4135823;34;20205;-65
2021/10/01 09:57:03;;;;;;;7.25;4.03;;;;;;;;;;4115735;34;20511;-67
2021/10/01 09:59:30;;;;;;;6.50;4.60;;;;;;;;;;4136020;34;20119;-61
2021/10/01 10:02:13;;;;;;;7.28;5.05;;;;;;;;;;4127042;34;20138;-61
2021/10/01 10:04:53;;;;;;;8.68;4.50;;;;;;;;;;4137806;34;20115;-61
2021/10/01 10:07:29;;;;;;;9.02;4.28;;;;;;;;;;4137768;34;20227;-61
2021/10/01 10:09:57;;;;;;;4.90;3.00;;;;;;;;;;4126671;34;20115;-61
2021/10/01 10:12:34;;;;;;;6.12;3.85;;;;;;;;;;4138045;34;20441;-60
2021/10/01 10:15:01;;;;;;;11.43;4.18;;;;;;;;;;4145419;34;20096;-61
2021/10/01 10:17:28;;;;;;;7.50;4.40;;;;;;;;;;4148582;34;20119;-61
2021/10/01 10:19:56;;;;;;;11.07;4.10;;;;;;;;;;4132197;34;20126;-61
2021/10/01 10:22:32;;;;;;;8.48;5.03;;;;;;;;;;4124769;34;20131;-60
2021/10/01 10:25:01;;;;;;;7.82;3.65;;;;;;;;;;4119205;34;20119;-60
2021/10/01 10:27:28;;;;;;;4.50;3.10;;;;;;;;;;4114644;34;20226;-61
2021/10/01 10:29:56;;;;;;;5.28;3.80;;;;;;;;;;4138172;34;20509;-61
2021/10/01 10:32:28;;;;;;;5.65;3.20;;;;;;;;;;4111055;34;20143;-60
2021/10/01 10:35:02;;;;;;;6.28;4.00;;;;;;;;;;4126896;34;20207;-60
2021/10/01 10:37:41;;;;;;;7.50;3.90;;;;;;;;;;4126559;34;20126;-60
2021/10/01 10:40:17;;;;;;;5.40;4.22;;;;;;;;;;4115016;34;20118;-63
2021/10/01 10:42:44;;;;;;;8.93;3.83;;;;;;;;;;4148840;34;20126;-62
2021/10/01 10:45:14;;;;;;;4.30;3.35;;;;;;;;;;4150104;34;20096;-63
2021/10/01 10:47:42;;;;;;;6.47;3.97;;;;;;;;;;4137572;34;20099;-63
2021/10/01 10:50:55;;;;;;;4.00;3.00;;;;;;;;;;4148854;34;20557;-62
2021/10/01 10:53:24;;;;;;;7.82;3.42;;;;;;;;;;4136184;34;20107;-63
2021/10/01 10:55:58;;;;;;;5.97;3.10;;;;;;;;;;4113529;34;20219;-63
2021/10/01 10:58:24;;;;;;;8.02;3.47;;;;;;;;;;4135304;34;20491;-62
2021/10/01 11:00:54;;;;;;;8.25;3.50;;;;;;;;;;4136523;34;20541;-62
2021/10/01 11:03:22;;;;;;;6.62;3.90;;;;;;;;;;4135341;34;20122;-62
2021/10/01 11:06:13;;;;;;;6.35;3.83;;;;;;;;;;4135371;34;20127;-62
2021/10/01 11:08:40;;;;;;;5.30;3.95;;;;;;;;;;4131051;34;20135;-62
2021/10/01 11:11:26;;;;;;;4.53;3.83;;;;;;;;;;4146118;34;20111;-62
2021/10/01 11:13:52;;;;;;;5.37;3.78;;;;;;;;;;4135259;34;20095;-63
2021/10/01 11:16:19;;;;;;;6.93;3.85;;;;;;;;;;4145727;34;20226;-62
2021/10/01 11:18:45;;;;;;;4.20;3.53;;;;;;;;;;4126685;34;20336;-62
2021/10/01 11:21:26;;;;;;;4.03;3.30;;;;;;;;;;4149839;34;20095;-62
2021/10/01 11:23:59;;;;;;;5.45;3.08;;;;;;;;;;4148761;34;20099;-62
2021/10/01 11:26:33;;;;;;;3.70;3.25;;;;;;;;;;4148400;34;20127;-62
2021/10/01 11:28:59;;;;;;;6.72;3.20;;;;;;;;;;4148449;34;20123;-62
2021/10/01 11:31:39;;;;;;;3.87;2.65;;;;;;;;;;4137176;34;20118;-62
2021/10/01 11:34:05;;;;;;;5.25;3.30;;;;;;;;;;4149894;34;20460;-63
2021/10/01 11:36:31;;;;;;;6.95;3.70;;;;;;;;;;4149822;34;20115;-63
2021/10/01 11:39:11;;;;;;;5.37;3.75;;;;;;;;;;4137374;34;20183;-63
2021/10/01 11:41:47;;;;;;;6.22;3.80;;;;;;;;;;4137171;34;20131;-64
2021/10/01 11:44:13;;;;;;;7.12;4.20;;;;;;;;;;4137496;34;20121;-64
2021/10/01 11:46:44;;;;;;;4.03;3.10;;;;;;;;;;4137263;34;20178;-64
2021/10/01 11:49:18;;;;;;;6.55;3.83;;;;;;;;;;4148363;34;20096;-64
2021/10/01 11:52:05;;;;;;;7.10;3.10;;;;;;;;;;4149607;34;20097;-64
2021/10/01 11:54:31;;;;;;;5.62;4.28;;;;;;;;;;4125935;34;20467;-63
2021/10/01 11:56:59;;;;;;;6.62;3.60;;;;;;;;;;4136826;34;20118;-62
2021/10/01 11:59:57;;;;;;;8.73;3.92;;;;;;;;;;4148630;34;20183;-62
2021/10/01 12:02:33;;;;;;;9.10;3.97;;;;;;;;;;4147979;34;20516;-62
2021/10/01 12:05:18;;;;;;;6.15;3.80;;;;;;;;;;4149684;34;20199;-61
2021/10/01 12:07:48;;;;;;;8.38;3.90;;;;;;;;;;4148514;34;20520;-62
2021/10/01 12:10:14;;;;;;;9.15;3.40;;;;;;;;;;4137421;34;20189;-61
2021/10/01 12:12:59;;;;;;;4.62;3.53;;;;;;;;;;4137242;34;20144;-62
2021/10/01 12:15:54;;;;;;;10.33;3.77;;;;;;;;;;4149528;34;20227;-63
2021/10/01 12:18:55;;;;;;;5.35;3.70;;;;;;;;;;4149038;34;20119;-64
2021/10/01 12:21:22;;;;;;;5.90;4.10;;;;;;;;;;4147820;34;20232;-64
2021/10/01 12:24:10;;;;;;;7.78;3.60;;;;;;;;;;4137107;34;20091;-65
2021/10/01 12:26:55;;;;;;;5.85;3.90;;;;;;;;;;4126204;34;20618;-64
2021/10/01 12:29:23;;;;;;;5.43;3.85;;;;;;;;;;4148182;34;20540;-63
2021/10/01 12:31:56;;;;;;;8.32;4.05;;;;;;;;;;4149257;34;20110;-63
2021/10/01 12:34:26;;;;;;;5.60;4.00;;;;;;;;;;4148033;34;20114;-63
2021/10/01 12:36:57;;;;;;;6.87;3.70;;;;;;;;;;4147773;34;20117;-63
2021/10/01 12:39:24;;;;;;;5.37;4.20;;;;;;;;;;4147905;34;20099;-63
2021/10/01 12:42:04;;;;;;;5.90;4.00;;;;;;;;;;4149011;34;20287;-63
2021/10/01 12:44:33;;;;;;;5.62;3.90;;;;;;;;;;4147953;34;20513;-63
2021/10/01 12:47:09;;;;;;;9.80;4.00;;;;;;;;;;4136814;34;20194;-64
2021/10/01 12:49:35;;;;;;;6.90;3.58;;;;;;;;;;4135836;34;20214;-62
2021/10/01 12:52:08;;;;;;;5.90;3.53;;;;;;;;;;4148955;34;20544;-64
2021/10/01 12:54:36;;;;;;;10.35;4.75;;;;;;;;;;4147609;34;20514;-64
2021/10/01 12:57:11;;;;;;;7.87;5.72;;;;;;;;;;4147622;34;20430;-63
2021/10/01 12:59:51;;;;;;;10.25;5.40;;;;;;;;;;4148810;34;20103;-64
2021/10/01 13:02:19;;;;;;;8.82;5.37;;;;;;;;;;4126352;34;20114;-64
2021/10/01 13:04:46;;;;;;;6.78;4.60;;;;;;;;;;4124979;34;20124;-63
2021/10/01 13:07:25;;;;;;;11.00;5.15;;;;;;;;;;4136515;34;20197;-63
2021/10/01 13:09:52;;;;;;;11.35;6.37;;;;;;;;;;4136047;34;20213;-62
2021/10/01 13:12:28;;;;;;;10.30;6.15;;;;;;;;;;4138691;34;20123;-62
2021/10/01 13:15:16;;;;;;;13.10;6.07;;;;;;;;;;4151164;34;20554;-62
2021/10/01 13:17:42;;;;;;;9.20;6.22;;;;;;;;;;4150939;34;20123;-63
2021/10/01 13:20:09;;;;;;;11.43;6.37;;;;;;;;;;4151116;34;20134;-63
2021/10/01 13:23:00;;;;;;;11.30;5.65;;;;;;;;;;4149531;34;20142;-62
2021/10/01 13:25:31;;;;;;;17.55;6.07;;;;;;;;;;4138536;34;20189;-61
2021/10/01 13:27:58;;;;;;;10.13;5.62;;;;;;;;;;4149481;34;20201;-63
2021/10/01 13:30:24;;;;;;;13.85;6.28;;;;;;;;;;4151203;34;20087;-63
2021/10/01 13:32:50;;;;;;;12.15;6.60;;;;;;;;;;4149511;34;20212;-63
2021/10/01 13:35:16;;;;;;;14.75;6.72;;;;;;;;;;4149437;34;20558;-63
2021/10/01 13:37:46;;;;;;;13.05;6.85;;;;;;;;;;4138129;34;20214;-63
2021/10/01 13:40:12;;;;;;;17.73;6.93;;;;;;;;;;4150592;34;20119;-64
2021/10/01 13:42:38;;;;;;;13.85;7.43;;;;;;;;;;4149005;34;20194;-64
2021/10/01 13:45:05;;;;;;;11.05;6.65;;;;;;;;;;4149478;34;20123;-63
2021/10/01 13:47:31;;;;;;;10.07;6.90;;;;;;;;;;4137940;34;20094;-62
2021/10/01 13:49:58;;;;;;;15.13;7.78;;;;;;;;;;4149271;34;20096;-63
2021/10/01 13:52:25;;;;;;;11.70;7.05;;;;;;;;;;4150508;34;20126;-62
2021/10/01 13:54:51;;;;;;;22.02;14.82;;;;;;;;;;4150445;34;20298;-62
2021/10/01 13:57:17;;;;;;;26.45;16.05;;;;;;;;;;4148994;34;20564;-63
2021/10/01 13:59:43;;;;;;;43.65;25.30;;;;;;;;;;4150392;34;20215;-63
2021/10/01 14:02:09;;;;;;;14.43;8.90;;;;;;;;;;4149044;34;20542;-62
2021/10/01 14:04:35;;;;;;;22.13;11.32;;;;;;;;;;4150468;34;20133;-63
2021/10/01 14:07:01;;;;;;;21.45;8.50;;;;;;;;;;4149033;34;20543;-62
2021/10/01 14:09:27;;;;;;;11.77;8.70;;;;;;;;;;4149027;34;20127;-63
2021/10/01 14:11:53;;;;;;;11.55;8.32;;;;;;;;;;4137859;34;20558;-63
2021/10/01 14:14:19;;;;;;;14.10;8.35;;;;;;;;;;4149327;34;20091;-62
2021/10/01 14:16:45;;;;;;;13.48;7.32;;;;;;;;;;4130827;34;20159;-62
2021/10/01 14:19:11;;;;;;;15.13;9.23;;;;;;;;;;4136837;34;20493;-63
2021/10/01 14:21:37;;;;;;;23.35;11.02;;;;;;;;;;4113017;34;20217;-62
2021/10/01 14:24:04;;;;;;;18.60;9.65;;;;;;;;;;4113105;34;20444;-63
2021/10/01 14:26:31;;;;;;;13.68;8.00;;;;;;;;;;4136898;34;20549;-64
2021/10/01 14:28:57;;;;;;;18.65;9.05;;;;;;;;;;4136596;34;20116;-65
2021/10/01 14:31:24;;;;;;;14.13;9.02;;;;;;;;;;4124186;34;20096;-65
2021/10/01 14:33:50;;;;;;;13.60;9.40;;;;;;;;;;4124593;34;20425;-65
2021/10/01 14:36:16;;;;;;;21.08;10.98;;;;;;;;;;4136598;34;20203;-64
2021/10/01 14:38:44;;;;;;;28.10;15.60;;;;;;;;;;4102890;34;20177;-65
2021/10/01 14:41:10;;;;;;;25.52;15.98;;;;;;;;;;4135080;34;20116;-65
2021/10/01 14:43:37;;;;;;;20.88;10.00;;;;;;;;;;4091557;34;20199;-65
2021/10/01 14:46:03;;;;;;;12.82;8.23;;;;;;;;;;4123717;34;20111;-66
2021/10/01 14:48:30;;;;;;;15.77;9.25;;;;;;;;;;4135451;34;20518;-66
2021/10/01 14:50:57;;;;;;;18.30;10.18;;;;;;;;;;4113514;34;20104;-65
2021/10/01 14:53:23;;;;;;;17.52;9.25;;;;;;;;;;4135209;34;20184;-69
2021/10/01 14:55:49;;;;;;;23.20;12.05;;;;;;;;;;4102591;34;20596;-70
2021/10/01 14:58:18;;;;;;;18.55;11.05;;;;;;;;;;4124351;34;20236;-70
2021/10/01 15:00:46;;;;;;;23.35;9.15;;;;;;;;;;4136638;34;20192;-66
2021/10/01 15:03:13;;;;;;;22.52;10.60;;;;;;;;;;4135124;34;20119;-66
2021/10/01 15:05:38;;;;;;;18.58;10.27;;;;;;;;;;4134923;34;20193;-63
2021/10/01 15:08:05;;;;;;;15.98;10.05;;;;;;;;;;4136644;34;20202;-63
2021/10/01 15:10:31;;;;;;;18.02;10.35;;;;;;;;;;4134854;34;20114;-64
2021/10/01 15:12:57;;;;;;;13.45;9.23;;;;;;;;;;4133029;34;20702;-65
2021/10/01 15:15:26;;;;;;;17.75;9.32;;;;;;;;;;4135453;34;20134;-66
2021/10/01 15:17:53;;;;;;;17.05;8.10;;;;;;;;;;4143148;34;20087;-68
2021/10/01 15:20:19;;;;;;;8.75;6.07;;;;;;;;;;4147130;34;20214;-69
2021/10/01 15:22:45;;;;;;;11.35;5.37;;;;;;;;;;4148608;34;20114;-69
2021/10/01 15:25:12;;;;;;;8.60;5.65;;;;;;;;;;4149840;34;20107;-68
2021/10/01 15:27:38;;;;;;;11.55;6.15;;;;;;;;;;4139828;34;20118;-66
2021/10/01 15:30:06;;;;;;;11.57;6.05;;;;;;;;;;4124758;34;20131;-62
2021/10/01 15:32:32;;;;;;;17.52;6.60;;;;;;;;;;4136291;34;20107;-64
2021/10/01 15:34:58;;;;;;;13.02;6.90;;;;;;;;;;4123438;34;20452;-64
2021/10/01 15:37:24;;;;;;;19.05;8.43;;;;;;;;;;4132004;34;20098;-63
2021/10/01 15:39:50;;;;;;;18.35;8.85;;;;;;;;;;4125976;34;20527;-63
2021/10/01 15:42:16;;;;;;;18.90;8.77;;;;;;;;;;4125455;34;20126;-63
2021/10/01 15:44:42;;;;;;;14.25;8.88;;;;;;;;;;4126169;34;20095;-64
2021/10/01 15:47:08;;;;;;;13.93;9.40;;;;;;;;;;4136835;34;20100;-66
2021/10/01 15:49:35;;;;;;;24.60;9.57;;;;;;;;;;4137285;34;20521;-64
2021/10/01 15:52:00;;;;;;;12.40;8.88;;;;;;;;;;4114011;34;20666;-64
2021/10/01 15:54:27;;;;;;;15.55;8.52;;;;;;;;;;4124927;34;20150;-64
2021/10/01 15:56:52;;;;;;;18.00;8.45;;;;;;;;;;4147923;34;20175;-63
2021/10/01 15:59:18;;;;;;;14.45;8.27;;;;;;;;;;4147946;34;20204;-64
2021/10/01 16:01:44;;;;;;;12.13;6.60;;;;;;;;;;4142660;34;20126;-63
2021/10/01 16:04:10;;;;;;;18.33;6.50;;;;;;;;;;4135741;34;20212;-64
2021/10/01 16:06:36;;;;;;;11.82;5.93;;;;;;;;;;4123061;34;20130;-64
2021/10/01 16:09:02;;;;;;;13.50;6.40;;;;;;;;;;4123334;34;20657;-64
2021/10/01 16:11:28;;;;;;;7.78;5.65;;;;;;;;;;4134388;34;20103;-63
2021/10/01 16:13:54;;;;;;;9.32;5.57;;;;;;;;;;4123278;34;20512;-63
2021/10/01 16:16:19;;;;;;;10.32;6.18;;;;;;;;;;4122929;34;20152;-63
2021/10/01 16:18:46;;;;;;;9.02;5.93;;;;;;;;;;4112130;34;20151;-63
2021/10/01 16:21:13;;;;;;;8.88;5.05;;;;;;;;;;4123334;34;20095;-63
2021/10/01 16:23:39;;;;;;;10.82;5.35;;;;;;;;;;4123249;34;20106;-64
2021/10/01 16:26:05;;;;;;;13.20;6.57;;;;;;;;;;4122970;34;20112;-63
2021/10/01 16:28:31;;;;;;;7.95;4.68;;;;;;;;;;4134378;34;20115;-63
2021/10/01 16:30:58;;;;;;;7.65;4.87;;;;;;;;;;4122750;34;20210;-63